createdAt,value
2022-12-31T00:01:28.533Z,14.20
2022-12-31T00:03:55.877Z,14.40
2022-12-31T00:06:32.023Z,14.30
2022-12-31T00:09:00.693Z,14.40
2022-12-31T00:11:28.955Z,14.50
2022-12-31T00:13:56.274Z,14.60
2022-12-31T00:16:29.170Z,14.50
2022-12-31T00:18:59.214Z,14.60
2022-12-31T00:21:27.345Z,14.50
2022-12-31T00:23:54.093Z,14.60
2022-12-31T00:26:24.745Z,14.70
2022-12-31T00:28:53.622Z,14.60
2022-12-31T00:31:26.058Z,14.70
2022-12-31T00:33:52.622Z,14.70
2022-12-31T00:36:24.636Z,14.80
2022-12-31T00:38:53.300Z,14.80
2022-12-31T00:41:21.420Z,15.00
2022-12-31T00:43:48.476Z,15.00
2022-12-31T00:46:16.274Z,15.00
2022-12-31T00:48:43.183Z,14.80
2022-12-31T00:51:12.010Z,14.80
2022-12-31T00:53:39.022Z,14.80
2022-12-31T00:56:11.137Z,14.80
2022-12-31T00:58:38.290Z,15.00
2022-12-31T01:01:23.227Z,15.00
2022-12-31T01:03:52.328Z,15.20
2022-12-31T01:06:19.861Z,15.10
2022-12-31T01:08:49.140Z,15.20
2022-12-31T01:11:19.519Z,15.30
2022-12-31T01:13:47.555Z,15.30
2022-12-31T01:16:14.374Z,15.50
2022-12-31T01:18:41.528Z,15.50
2022-12-31T01:21:10.890Z,15.40
2022-12-31T01:23:37.593Z,15.50
2022-12-31T01:26:07.188Z,15.50
2022-12-31T01:28:33.901Z,15.40
2022-12-31T01:31:11.069Z,15.10
2022-12-31T01:33:38.296Z,15.10
2022-12-31T01:36:07.615Z,15.30
2022-12-31T01:38:34.831Z,15.30
2022-12-31T01:41:01.910Z,15.40
2022-12-31T01:43:47.839Z,15.50
2022-12-31T01:46:36.023Z,15.40
2022-12-31T01:49:29.806Z,15.50
2022-12-31T01:52:03.298Z,15.50
2022-12-31T01:54:34.739Z,15.60
2022-12-31T01:57:02.042Z,15.70
2022-12-31T01:59:29.748Z,15.70
2022-12-31T02:01:56.520Z,15.80
2022-12-31T02:04:25.426Z,15.80
2022-12-31T02:07:03.778Z,15.80
2022-12-31T02:09:31.699Z,15.70
2022-12-31T02:11:58.539Z,15.90
2022-12-31T02:14:32.553Z,15.80
2022-12-31T02:17:11.045Z,15.80
2022-12-31T02:20:19.416Z,15.80
2022-12-31T02:23:01.706Z,15.70
2022-12-31T02:25:46.366Z,15.80
2022-12-31T02:28:57.048Z,16.00
2022-12-31T02:31:32.650Z,16.00
2022-12-31T02:34:13.595Z,16.00
2022-12-31T02:36:44.839Z,16.00
2022-12-31T02:39:12.386Z,16.00
2022-12-31T02:41:50.805Z,16.00
2022-12-31T02:44:32.326Z,15.90
2022-12-31T02:47:21.700Z,15.90
2022-12-31T02:50:07.165Z,15.70
2022-12-31T02:53:00.835Z,15.70
2022-12-31T02:55:46.057Z,15.70
2022-12-31T02:58:43.637Z,15.90
2022-12-31T03:01:29.225Z,15.80
2022-12-31T03:04:15.932Z,15.90
2022-12-31T03:06:43.070Z,15.80
2022-12-31T03:09:15.448Z,15.70
2022-12-31T03:12:00.427Z,15.60
2022-12-31T03:14:26.970Z,15.40
2022-12-31T03:16:53.583Z,15.00
2022-12-31T03:19:38.688Z,14.90
2022-12-31T03:22:23.897Z,15.00
2022-12-31T03:25:09.251Z,14.90
2022-12-31T03:27:35.788Z,15.10
2022-12-31T03:30:02.346Z,15.10
2022-12-31T03:32:29.115Z,15.30
2022-12-31T03:34:55.867Z,15.30
2022-12-31T03:37:22.497Z,15.30
2022-12-31T03:39:49.192Z,15.40
2022-12-31T03:42:15.741Z,15.40
2022-12-31T03:44:42.344Z,15.40
2022-12-31T03:47:08.883Z,15.20
2022-12-31T03:49:36.175Z,15.30
2022-12-31T03:52:03.517Z,15.40
2022-12-31T03:54:30.082Z,15.40
2022-12-31T03:57:00.107Z,15.50
2022-12-31T03:59:26.967Z,15.40
2022-12-31T04:01:53.884Z,15.30
2022-12-31T04:04:20.777Z,15.40
2022-12-31T04:06:47.539Z,15.50
2022-12-31T04:09:14.150Z,15.60
2022-12-31T04:11:40.788Z,15.60
2022-12-31T04:14:07.378Z,15.70
2022-12-31T04:16:34.089Z,15.60
2022-12-31T04:19:00.766Z,15.80
2022-12-31T04:21:33.109Z,15.90
2022-12-31T04:24:02.525Z,16.00
2022-12-31T04:26:29.725Z,16.00
2022-12-31T04:28:56.376Z,16.00
2022-12-31T04:31:23.253Z,16.10
2022-12-31T04:33:50.055Z,16.10
2022-12-31T04:36:16.742Z,16.10
2022-12-31T04:38:43.379Z,16.20
2022-12-31T04:41:19.080Z,16.20
2022-12-31T04:43:48.787Z,16.20
2022-12-31T04:46:17.118Z,16.20
2022-12-31T04:48:44.023Z,16.20
2022-12-31T04:51:10.798Z,16.20
2022-12-31T04:53:37.909Z,16.20
2022-12-31T04:56:05.489Z,16.20
2022-12-31T04:58:32.678Z,16.30
2022-12-31T05:00:59.501Z,16.20
2022-12-31T05:03:27.241Z,16.20
2022-12-31T05:05:59.360Z,16.20
2022-12-31T05:08:26.160Z,16.20
2022-12-31T05:10:52.822Z,16.20
2022-12-31T05:13:19.450Z,16.20
2022-12-31T05:15:46.267Z,16.30
2022-12-31T05:18:13.413Z,16.30
2022-12-31T05:20:39.963Z,16.20
2022-12-31T05:23:06.795Z,16.30
2022-12-31T05:25:33.802Z,16.00
2022-12-31T05:28:00.506Z,15.90
2022-12-31T05:30:27.153Z,15.90
2022-12-31T05:32:53.917Z,16.00
2022-12-31T05:35:20.723Z,16.00
2022-12-31T05:37:47.317Z,16.10
2022-12-31T05:40:13.969Z,16.30
2022-12-31T05:42:40.675Z,16.30
2022-12-31T05:45:07.872Z,16.40
2022-12-31T05:47:34.430Z,16.50
2022-12-31T05:50:00.964Z,16.50
2022-12-31T05:52:27.509Z,16.50
2022-12-31T05:54:54.047Z,16.50
2022-12-31T05:57:20.700Z,16.70
2022-12-31T05:59:47.252Z,16.70
2022-12-31T06:02:13.891Z,16.60
2022-12-31T06:04:40.534Z,16.60
2022-12-31T06:07:07.081Z,16.60
2022-12-31T06:09:33.634Z,16.50
2022-12-31T06:12:00.430Z,16.60
2022-12-31T06:14:26.973Z,16.60
2022-12-31T06:16:53.521Z,16.80
2022-12-31T06:19:20.070Z,16.60
2022-12-31T06:21:46.827Z,16.50
2022-12-31T06:24:13.453Z,16.50
2022-12-31T06:26:40.272Z,16.60
2022-12-31T06:29:07.319Z,16.60
2022-12-31T06:31:34.126Z,16.60
2022-12-31T06:34:00.700Z,16.60
2022-12-31T06:36:27.321Z,16.50
2022-12-31T06:38:55.062Z,16.40
2022-12-31T06:41:21.901Z,16.50
2022-12-31T06:43:48.768Z,16.50
2022-12-31T06:46:17.366Z,16.40
2022-12-31T06:48:44.808Z,16.40
2022-12-31T06:51:17.484Z,16.50
2022-12-31T06:53:45.928Z,16.50
2022-12-31T06:56:18.963Z,16.10
2022-12-31T06:58:46.167Z,15.70
2022-12-31T07:01:27.849Z,15.80
2022-12-31T07:04:18.099Z,15.80
2022-12-31T07:06:56.004Z,16.00
2022-12-31T07:09:45.529Z,16.30
2022-12-31T07:12:35.755Z,16.50
2022-12-31T07:15:06.579Z,16.50
2022-12-31T07:17:44.980Z,16.60
2022-12-31T07:20:15.177Z,16.60
2022-12-31T07:22:42.079Z,16.70
2022-12-31T07:25:14.356Z,16.60
2022-12-31T07:27:53.036Z,16.60
2022-12-31T07:30:25.010Z,16.70
2022-12-31T07:33:06.656Z,16.70
2022-12-31T07:35:56.943Z,16.90
2022-12-31T07:38:30.984Z,16.80
2022-12-31T07:41:17.797Z,16.50
2022-12-31T07:44:04.044Z,16.60
2022-12-31T07:46:55.559Z,16.60
2022-12-31T07:49:23.066Z,16.50
2022-12-31T07:51:50.121Z,16.50
2022-12-31T07:54:16.815Z,16.40
2022-12-31T07:56:43.999Z,16.30
2022-12-31T07:59:40.159Z,16.10
2022-12-31T08:02:24.701Z,16.30
2022-12-31T08:05:15.215Z,16.20
2022-12-31T08:08:12.124Z,15.90
2022-12-31T08:10:51.214Z,16.00
2022-12-31T08:13:18.045Z,16.20
2022-12-31T08:15:44.876Z,16.40
2022-12-31T08:18:11.745Z,16.40
2022-12-31T08:20:49.216Z,16.60
2022-12-31T08:23:43.126Z,16.70
2022-12-31T08:26:33.781Z,16.70
2022-12-31T08:29:06.190Z,16.70
2022-12-31T08:32:12.159Z,16.80
2022-12-31T08:34:58.680Z,16.80
2022-12-31T08:37:46.425Z,16.90
2022-12-31T08:40:53.815Z,17.00
2022-12-31T08:43:36.581Z,16.90
2022-12-31T08:46:05.528Z,17.00
2022-12-31T08:48:41.460Z,17.10
2022-12-31T08:51:27.211Z,17.00
2022-12-31T08:53:55.178Z,17.10
2022-12-31T08:56:21.700Z,17.10
2022-12-31T08:59:24.889Z,17.00
2022-12-31T09:02:13.294Z,17.10
2022-12-31T09:04:57.715Z,17.10
2022-12-31T09:07:45.750Z,17.30
2022-12-31T09:10:37.967Z,17.30
2022-12-31T09:13:37.501Z,17.30
2022-12-31T09:16:29.693Z,17.30
2022-12-31T09:18:56.307Z,17.20
2022-12-31T09:21:23.116Z,17.20
2022-12-31T09:23:49.922Z,17.30
2022-12-31T09:26:22.654Z,17.40
2022-12-31T09:29:18.408Z,17.50
2022-12-31T09:31:57.545Z,17.40
2022-12-31T09:34:35.762Z,17.20
2022-12-31T09:37:22.670Z,17.50
2022-12-31T09:39:49.430Z,17.50
2022-12-31T09:42:45.083Z,17.50
2022-12-31T09:45:36.638Z,17.40
2022-12-31T09:48:24.419Z,17.40
2022-12-31T09:51:16.329Z,17.50
2022-12-31T09:54:06.138Z,17.50
2022-12-31T09:56:37.138Z,17.60
2022-12-31T09:59:17.948Z,17.40
2022-12-31T10:01:50.367Z,17.50
2022-12-31T10:04:16.938Z,17.50
2022-12-31T10:06:51.840Z,17.50
2022-12-31T10:09:31.531Z,17.70
2022-12-31T10:12:13.244Z,17.60
2022-12-31T10:15:15.076Z,17.70
2022-12-31T10:17:58.698Z,17.80
2022-12-31T10:20:56.245Z,17.80
2022-12-31T10:23:37.898Z,17.90
2022-12-31T10:26:33.154Z,17.80
2022-12-31T10:29:02.697Z,17.80
2022-12-31T10:31:58.438Z,17.80
2022-12-31T10:35:01.748Z,17.70
2022-12-31T10:37:43.980Z,17.80
2022-12-31T10:40:53.170Z,17.80
2022-12-31T10:43:37.708Z,17.70
2022-12-31T10:46:23.421Z,17.80
2022-12-31T10:49:08.202Z,17.90
2022-12-31T10:52:09.292Z,17.90
2022-12-31T10:55:32.063Z,17.90
2022-12-31T10:58:18.441Z,18.00
2022-12-31T11:01:06.192Z,18.20
2022-12-31T11:03:54.674Z,18.30
2022-12-31T11:06:54.038Z,18.40
2022-12-31T11:09:58.005Z,18.40
2022-12-31T11:12:35.919Z,18.40
2022-12-31T11:15:17.360Z,18.70
2022-12-31T11:18:07.784Z,18.30
2022-12-31T11:21:13.016Z,18.10
2022-12-31T11:23:48.622Z,18.00
2022-12-31T11:26:40.510Z,17.90
2022-12-31T11:29:45.027Z,17.80
2022-12-31T11:32:18.025Z,17.80
2022-12-31T11:35:22.695Z,17.80
2022-12-31T11:37:50.630Z,17.80
2022-12-31T11:40:54.731Z,17.80
2022-12-31T11:43:23.994Z,17.60
2022-12-31T11:46:03.058Z,17.60
2022-12-31T11:48:41.503Z,17.80
2022-12-31T11:51:38.303Z,17.80
2022-12-31T11:54:26.556Z,17.80
2022-12-31T11:57:16.377Z,17.90
2022-12-31T11:59:43.085Z,17.70
2022-12-31T12:02:26.548Z,17.80
2022-12-31T12:04:55.090Z,17.90
2022-12-31T12:07:23.979Z,17.80
2022-12-31T12:09:53.046Z,17.70
2022-12-31T12:12:21.807Z,17.70
